Time;durP1;ratioP1;P1;durP2;ratioP2;P2;SDS_P1;SDS_P2;PMS_P1;PMS_P2;Temp;Humidity;BMP_temperature;BMP_pressure;BME280_temperature;BME280_humidity;BME280_pressure;Samples;Min_cycle;Max_cycle;Signal;HPM_P1;HPM_P2
2022/01/29 00:02:10;;;;;;;11.20;6.18;;;;;;;;;;5027752;28;20035;-46
2022/01/29 00:04:37;;;;;;;9.95;6.07;;;;;;;;;;5046728;28;20512;-47
2022/01/29 00:07:03;;;;;;;10.85;6.20;;;;;;;;;;5046264;28;20035;-47
2022/01/29 00:09:29;;;;;;;10.73;6.10;;;;;;;;;;5045800;28;20443;-50
2022/01/29 00:11:55;;;;;;;9.02;5.68;;;;;;;;;;5042556;28;21158;-47
2022/01/29 00:14:21;;;;;;;9.85;5.90;;;;;;;;;;5044172;28;20390;-46
2022/01/29 00:16:47;;;;;;;7.93;5.10;;;;;;;;;;5046107;28;20025;-46
2022/01/29 00:19:13;;;;;;;9.93;6.30;;;;;;;;;;5044713;28;20029;-47
2022/01/29 00:21:39;;;;;;;10.18;6.20;;;;;;;;;;5045898;28;20067;-47
2022/01/29 00:24:05;;;;;;;10.07;5.53;;;;;;;;;;5028014;28;20036;-46
2022/01/29 00:26:31;;;;;;;9.52;5.35;;;;;;;;;;5025720;28;20029;-47
2022/01/29 00:28:58;;;;;;;10.15;5.13;;;;;;;;;;5025771;28;20079;-49
2022/01/29 00:31:24;;;;;;;9.23;5.35;;;;;;;;;;5025372;28;20017;-47
2022/01/29 00:33:50;;;;;;;8.02;5.57;;;;;;;;;;5025902;28;20033;-49
2022/01/29 00:36:16;;;;;;;8.43;5.35;;;;;;;;;;5026012;28;20070;-48
2022/01/29 00:38:43;;;;;;;9.88;5.50;;;;;;;;;;5025275;28;20080;-47
2022/01/29 00:41:09;;;;;;;11.20;5.63;;;;;;;;;;5024798;28;20325;-47
2022/01/29 00:43:35;;;;;;;9.50;5.68;;;;;;;;;;5037282;28;20025;-47
2022/01/29 00:46:01;;;;;;;9.48;5.50;;;;;;;;;;5045444;28;20017;-48
2022/01/29 00:48:27;;;;;;;9.35;5.45;;;;;;;;;;5045160;28;20029;-46
2022/01/29 00:50:53;;;;;;;10.43;5.50;;;;;;;;;;5029949;28;20497;-46
2022/01/29 00:53:20;;;;;;;9.93;5.25;;;;;;;;;;5043547;28;20025;-47
2022/01/29 00:55:48;;;;;;;9.32;5.55;;;;;;;;;;5043686;28;20033;-48
2022/01/29 00:58:14;;;;;;;8.23;5.25;;;;;;;;;;5045172;28;20021;-46
2022/01/29 01:00:40;;;;;;;7.18;4.80;;;;;;;;;;5041331;28;20462;-45
2022/01/29 01:03:06;;;;;;;8.30;5.05;;;;;;;;;;5045679;28;20043;-47
2022/01/29 01:05:32;;;;;;;9.73;4.63;;;;;;;;;;5043448;28;20041;-46
2022/01/29 01:07:58;;;;;;;7.55;4.53;;;;;;;;;;5037657;28;20091;-47
2022/01/29 01:10:24;;;;;;;8.32;4.93;;;;;;;;;;5024931;28;20115;-47
2022/01/29 01:12:50;;;;;;;8.80;4.97;;;;;;;;;;5024873;28;20032;-46
2022/01/29 01:15:16;;;;;;;8.55;5.28;;;;;;;;;;5030267;28;20510;-46
2022/01/29 01:17:42;;;;;;;8.95;5.72;;;;;;;;;;5044604;28;20017;-46
2022/01/29 01:20:09;;;;;;;8.10;4.40;;;;;;;;;;5043948;28;20397;-47
2022/01/29 01:22:35;;;;;;;7.07;4.45;;;;;;;;;;5045031;28;20488;-46
2022/01/29 01:25:02;;;;;;;8.57;4.88;;;;;;;;;;5042740;28;20033;-47
2022/01/29 01:27:28;;;;;;;10.40;5.38;;;;;;;;;;5043328;28;20104;-46
2022/01/29 01:29:54;;;;;;;8.90;5.65;;;;;;;;;;5044607;28;20158;-47
2022/01/29 01:32:20;;;;;;;10.13;5.72;;;;;;;;;;5044720;28;20035;-48
2022/01/29 01:34:51;;;;;;;11.27;6.57;;;;;;;;;;5044197;28;20653;-46
2022/01/29 01:37:34;;;;;;;11.88;6.70;;;;;;;;;;5041749;28;20356;-49
2022/01/29 01:40:00;;;;;;;10.23;6.00;;;;;;;;;;5044570;28;20024;-48
2022/01/29 01:42:27;;;;;;;10.65;5.85;;;;;;;;;;5044308;28;20021;-47
2022/01/29 01:44:53;;;;;;;9.55;5.63;;;;;;;;;;5044473;28;20108;-47
2022/01/29 01:47:20;;;;;;;9.88;6.25;;;;;;;;;;5021954;28;20029;-47
2022/01/29 01:49:46;;;;;;;9.77;5.75;;;;;;;;;;5027379;28;20032;-47
2022/01/29 01:52:13;;;;;;;8.07;4.72;;;;;;;;;;5044342;28;20037;-49
2022/01/29 01:54:40;;;;;;;8.50;5.00;;;;;;;;;;5043928;28;20068;-47
2022/01/29 01:57:06;;;;;;;10.15;5.80;;;;;;;;;;5027106;28;20037;-48
2022/01/29 01:59:32;;;;;;;9.02;5.50;;;;;;;;;;5028702;28;20515;-50
2022/01/29 02:01:58;;;;;;;9.60;5.25;;;;;;;;;;5024389;28;20353;-49
2022/01/29 02:04:24;;;;;;;10.48;5.22;;;;;;;;;;5023002;28;20045;-46
2022/01/29 02:06:51;;;;;;;10.10;5.55;;;;;;;;;;5024128;28;20247;-48
2022/01/29 02:09:20;;;;;;;8.95;5.40;;;;;;;;;;5028367;28;20033;-47
2022/01/29 02:11:54;;;;;;;9.60;5.68;;;;;;;;;;5041739;28;20146;-50
2022/01/29 02:14:24;;;;;;;10.50;5.85;;;;;;;;;;5045894;28;20051;-49
2022/01/29 02:16:50;;;;;;;12.40;6.47;;;;;;;;;;5046143;28;20017;-48
2022/01/29 02:19:16;;;;;;;9.82;6.57;;;;;;;;;;5036864;28;20116;-47
2022/01/29 02:21:42;;;;;;;10.70;5.75;;;;;;;;;;5025818;28;20036;-48
2022/01/29 02:24:08;;;;;;;10.98;5.60;;;;;;;;;;5032263;28;20040;-47
2022/01/29 02:26:34;;;;;;;9.35;5.88;;;;;;;;;;5046862;28;20025;-48
2022/01/29 02:29:00;;;;;;;9.40;4.93;;;;;;;;;;5038226;28;20025;-50
2022/01/29 02:31:26;;;;;;;11.15;6.68;;;;;;;;;;5024595;28;20113;-48
2022/01/29 02:33:52;;;;;;;10.63;5.80;;;;;;;;;;5026108;28;20053;-47
2022/01/29 02:36:19;;;;;;;10.60;6.43;;;;;;;;;;5026047;28;20052;-49
2022/01/29 02:38:45;;;;;;;9.07;5.85;;;;;;;;;;5026006;28;20447;-50
2022/01/29 02:41:11;;;;;;;10.77;6.63;;;;;;;;;;5024669;28;20396;-50
2022/01/29 02:43:49;;;;;;;10.18;6.40;;;;;;;;;;5026472;28;20029;-47
2022/01/29 02:48:43;;;;;;;13.35;7.15;;;;;;;;;;5026563;28;20042;-49
2022/01/29 02:51:09;;;;;;;10.80;6.60;;;;;;;;;;5026400;28;20030;-47
2022/01/29 02:53:36;;;;;;;10.35;6.05;;;;;;;;;;5026115;28;20091;-49
2022/01/29 02:56:02;;;;;;;12.90;7.32;;;;;;;;;;5025556;28;20045;-48
2022/01/29 02:58:29;;;;;;;10.98;6.20;;;;;;;;;;5025638;28;20393;-47
2022/01/29 03:00:55;;;;;;;10.63;6.30;;;;;;;;;;5035960;28;20492;-49
2022/01/29 03:03:21;;;;;;;10.48;6.47;;;;;;;;;;5065980;28;20028;-47
2022/01/29 03:05:47;;;;;;;13.15;6.97;;;;;;;;;;5049049;28;20029;-49
2022/01/29 03:08:13;;;;;;;11.65;6.05;;;;;;;;;;5043348;28;20037;-48
2022/01/29 03:10:39;;;;;;;12.35;6.75;;;;;;;;;;5038093;28;20053;-46
2022/01/29 03:13:06;;;;;;;13.80;7.43;;;;;;;;;;5026193;28;20029;-47
2022/01/29 03:15:32;;;;;;;15.02;8.40;;;;;;;;;;5025304;28;20489;-48
2022/01/29 03:17:58;;;;;;;15.20;8.98;;;;;;;;;;5025855;28;20034;-49
2022/01/29 03:20:24;;;;;;;14.30;8.75;;;;;;;;;;5025470;28;20156;-48
2022/01/29 03:22:50;;;;;;;15.20;8.27;;;;;;;;;;5025811;28;20026;-46
2022/01/29 03:25:16;;;;;;;16.58;9.13;;;;;;;;;;5029239;28;20035;-46
2022/01/29 03:27:42;;;;;;;16.50;9.30;;;;;;;;;;5028662;28;20520;-48
2022/01/29 03:30:09;;;;;;;15.90;8.57;;;;;;;;;;5029659;28;20156;-48
2022/01/29 03:32:35;;;;;;;17.55;9.23;;;;;;;;;;5029432;28;20483;-49
2022/01/29 03:35:01;;;;;;;20.15;10.52;;;;;;;;;;5041482;28;20519;-50
2022/01/29 03:37:27;;;;;;;18.45;10.95;;;;;;;;;;5029031;28;20820;-47
2022/01/29 03:39:58;;;;;;;16.77;9.40;;;;;;;;;;5027611;28;20176;-49
2022/01/29 03:42:24;;;;;;;19.02;10.45;;;;;;;;;;5027336;28;20021;-46
2022/01/29 03:44:50;;;;;;;19.98;11.85;;;;;;;;;;5027420;28;20028;-50
2022/01/29 03:47:16;;;;;;;27.00;13.55;;;;;;;;;;5028974;28;20118;-46
2022/01/29 03:49:42;;;;;;;22.35;12.93;;;;;;;;;;5027073;28;20531;-47
2022/01/29 03:52:08;;;;;;;25.25;13.40;;;;;;;;;;5027767;28;20108;-49
2022/01/29 03:54:34;;;;;;;23.83;12.48;;;;;;;;;;5027590;28;20029;-47
2022/01/29 03:57:01;;;;;;;22.52;12.10;;;;;;;;;;5031777;28;20021;-48
2022/01/29 03:59:27;;;;;;;21.63;11.65;;;;;;;;;;5047061;28;20027;-50
2022/01/29 04:01:53;;;;;;;19.88;10.65;;;;;;;;;;5047117;28;20087;-47
2022/01/29 04:04:19;;;;;;;19.50;10.80;;;;;;;;;;5047063;28;20506;-46
2022/01/29 04:06:45;;;;;;;21.75;11.88;;;;;;;;;;5042988;28;20021;-47
2022/01/29 04:09:12;;;;;;;22.30;11.45;;;;;;;;;;5039752;28;20117;-48
2022/01/29 04:11:39;;;;;;;25.63;14.10;;;;;;;;;;5047253;28;20080;-47
2022/01/29 04:14:15;;;;;;;25.42;13.63;;;;;;;;;;5047631;28;20503;-47
2022/01/29 04:16:41;;;;;;;25.13;13.48;;;;;;;;;;5042201;28;20025;-49
2022/01/29 04:19:07;;;;;;;27.58;14.73;;;;;;;;;;5027716;28;20021;-48
2022/01/29 04:21:33;;;;;;;31.33;15.68;;;;;;;;;;5026554;28;20108;-48
2022/01/29 04:23:59;;;;;;;27.83;15.25;;;;;;;;;;5028261;28;20448;-47
2022/01/29 04:26:25;;;;;;;25.58;14.15;;;;;;;;;;5045872;28;20056;-50
2022/01/29 04:28:52;;;;;;;22.88;12.70;;;;;;;;;;5026300;28;20091;-46
2022/01/29 04:31:21;;;;;;;21.55;11.65;;;;;;;;;;5026467;28;20033;-46
2022/01/29 04:33:47;;;;;;;18.05;9.88;;;;;;;;;;5026002;28;20441;-48
2022/01/29 04:36:13;;;;;;;20.05;10.63;;;;;;;;;;5026578;28;20452;-49
2022/01/29 04:38:39;;;;;;;20.90;11.18;;;;;;;;;;5026218;28;20041;-45
2022/01/29 04:41:06;;;;;;;23.23;12.60;;;;;;;;;;5027182;28;20272;-48
2022/01/29 04:43:32;;;;;;;20.45;11.48;;;;;;;;;;5026248;28;20029;-47
2022/01/29 04:45:59;;;;;;;17.90;10.23;;;;;;;;;;5026152;28;20516;-48
2022/01/29 04:48:25;;;;;;;17.52;9.35;;;;;;;;;;5026278;28;20025;-49
2022/01/29 04:50:51;;;;;;;14.45;9.02;;;;;;;;;;5025813;28;20029;-46
2022/01/29 04:53:18;;;;;;;17.10;9.07;;;;;;;;;;5026299;28;20085;-46
2022/01/29 04:55:44;;;;;;;16.35;8.73;;;;;;;;;;5025740;28;20037;-48
2022/01/29 04:58:10;;;;;;;14.30;8.02;;;;;;;;;;5025884;28;20029;-47
2022/01/29 05:00:37;;;;;;;15.75;8.98;;;;;;;;;;5026339;28;20108;-46
2022/01/29 05:03:14;;;;;;;13.52;7.45;;;;;;;;;;5025970;28;20052;-49
2022/01/29 05:05:40;;;;;;;12.63;7.70;;;;;;;;;;5025744;28;20021;-47
2022/01/29 05:08:07;;;;;;;16.00;8.18;;;;;;;;;;5037370;28;20037;-46
2022/01/29 05:10:34;;;;;;;12.15;7.25;;;;;;;;;;5043244;28;20115;-47
2022/01/29 05:13:04;;;;;;;15.98;8.65;;;;;;;;;;5045730;28;20041;-46
2022/01/29 05:29:06;;;;;;;12.98;7.18;;;;;;;;;;5044332;28;20056;-51
2022/01/29 05:31:32;;;;;;;13.02;6.82;;;;;;;;;;5045378;28;20104;-47
2022/01/29 05:34:00;;;;;;;13.18;6.88;;;;;;;;;;5045272;28;20488;-48
2022/01/29 05:36:26;;;;;;;13.27;7.40;;;;;;;;;;5043788;28;20504;-47
2022/01/29 05:38:53;;;;;;;13.90;7.97;;;;;;;;;;5029130;28;20036;-47
2022/01/29 05:41:19;;;;;;;15.30;7.78;;;;;;;;;;5025135;28;20048;-48
2022/01/29 05:43:46;;;;;;;11.68;6.85;;;;;;;;;;5023783;28;20075;-49
2022/01/29 05:46:13;;;;;;;11.85;7.30;;;;;;;;;;5024284;28;20052;-46
2022/01/29 05:48:40;;;;;;;11.43;6.65;;;;;;;;;;5026993;28;20029;-47
2022/01/29 05:51:06;;;;;;;13.65;7.22;;;;;;;;;;5025647;28;20100;-48
2022/01/29 05:53:32;;;;;;;10.07;6.82;;;;;;;;;;5025099;28;20500;-49
2022/01/29 05:55:58;;;;;;;12.55;7.22;;;;;;;;;;5025285;28;20033;-48
2022/01/29 05:58:25;;;;;;;13.57;7.28;;;;;;;;;;5024496;28;20021;-46
2022/01/29 06:00:52;;;;;;;14.63;7.93;;;;;;;;;;5024528;28;20027;-46
2022/01/29 06:03:18;;;;;;;10.23;6.75;;;;;;;;;;5025357;28;20029;-50
2022/01/29 06:05:44;;;;;;;12.88;6.93;;;;;;;;;;5024517;28;20497;-47
2022/01/29 06:08:11;;;;;;;14.07;7.50;;;;;;;;;;5024920;28;20044;-49
2022/01/29 06:10:37;;;;;;;12.48;6.85;;;;;;;;;;5025244;28;20030;-46
2022/01/29 06:13:10;;;;;;;17.55;9.57;;;;;;;;;;5024574;28;20037;-46
2022/01/29 06:15:39;;;;;;;27.23;14.20;;;;;;;;;;5025144;28;20037;-47
2022/01/29 06:18:07;;;;;;;23.35;13.38;;;;;;;;;;5030710;28;20009;-47
2022/01/29 06:20:35;;;;;;;21.73;12.45;;;;;;;;;;5044102;28;20017;-46
2022/01/29 06:23:02;;;;;;;21.92;12.48;;;;;;;;;;5044765;28;20021;-47
2022/01/29 06:25:29;;;;;;;23.65;11.98;;;;;;;;;;5044819;28;20033;-46
2022/01/29 06:27:55;;;;;;;18.13;10.48;;;;;;;;;;5044143;28;20036;-49
2022/01/29 06:30:21;;;;;;;20.83;10.43;;;;;;;;;;5025497;28;20439;-50
2022/01/29 06:32:47;;;;;;;19.67;10.23;;;;;;;;;;5024831;28;20040;-47
2022/01/29 06:35:13;;;;;;;15.55;8.55;;;;;;;;;;5024736;28;20017;-47
2022/01/29 06:37:39;;;;;;;16.63;8.75;;;;;;;;;;5025138;28;20386;-46
2022/01/29 06:40:06;;;;;;;17.85;8.48;;;;;;;;;;5025063;28;20057;-47
2022/01/29 06:42:32;;;;;;;15.73;8.32;;;;;;;;;;5024337;28;20026;-49
2022/01/29 06:44:58;;;;;;;16.17;8.82;;;;;;;;;;5024638;28;20163;-48
2022/01/29 06:47:24;;;;;;;16.60;9.50;;;;;;;;;;5033644;28;20567;-45
2022/01/29 06:49:50;;;;;;;16.35;9.27;;;;;;;;;;5041031;28;20147;-47
2022/01/29 06:52:16;;;;;;;15.52;8.73;;;;;;;;;;5044187;28;20082;-50
2022/01/29 06:54:43;;;;;;;13.35;7.80;;;;;;;;;;5040397;28;20507;-47
2022/01/29 06:57:09;;;;;;;14.82;8.25;;;;;;;;;;5044574;28;20033;-46
2022/01/29 06:59:36;;;;;;;12.70;7.38;;;;;;;;;;5045778;28;20021;-48
2022/01/29 07:02:02;;;;;;;13.77;8.30;;;;;;;;;;5048148;28;20040;-48
2022/01/29 07:04:28;;;;;;;14.77;8.45;;;;;;;;;;5048204;28;20041;-48
2022/01/29 07:06:54;;;;;;;16.02;9.00;;;;;;;;;;5048433;28;20104;-47
2022/01/29 07:09:20;;;;;;;13.43;8.25;;;;;;;;;;5046040;28;20040;-49
2022/01/29 07:11:54;;;;;;;14.23;7.90;;;;;;;;;;5047452;28;20108;-48
2022/01/29 07:14:20;;;;;;;15.00;8.50;;;;;;;;;;5048193;28;20041;-48
2022/01/29 07:16:46;;;;;;;17.38;9.68;;;;;;;;;;5047686;28;20032;-46
2022/01/29 07:19:12;;;;;;;14.95;8.93;;;;;;;;;;5033371;28;20456;-47
2022/01/29 07:21:38;;;;;;;16.25;8.52;;;;;;;;;;5048780;28;20021;-49
2022/01/29 07:24:04;;;;;;;17.42;8.70;;;;;;;;;;5048164;28;20037;-48
2022/01/29 07:26:31;;;;;;;16.17;8.55;;;;;;;;;;5047695;28;20029;-45
2022/01/29 07:28:57;;;;;;;15.30;8.05;;;;;;;;;;5046504;28;20451;-46
2022/01/29 07:31:23;;;;;;;17.63;9.07;;;;;;;;;;5045261;28;20033;-47
2022/01/29 07:33:49;;;;;;;20.90;10.77;;;;;;;;;;5047252;28;20033;-48
2022/01/29 07:36:15;;;;;;;17.52;9.02;;;;;;;;;;5045599;28;20028;-48
2022/01/29 07:38:42;;;;;;;17.27;9.68;;;;;;;;;;5040127;28;20037;-46
2022/01/29 07:41:08;;;;;;;14.70;8.80;;;;;;;;;;5031299;28;20025;-47
2022/01/29 07:43:34;;;;;;;13.82;7.97;;;;;;;;;;5045324;28;20504;-45
2022/01/29 07:46:01;;;;;;;13.80;7.80;;;;;;;;;;5047425;28;20036;-47
2022/01/29 07:48:27;;;;;;;14.75;8.00;;;;;;;;;;5047466;28;20067;-49
2022/01/29 07:50:54;;;;;;;13.45;6.85;;;;;;;;;;5033645;28;20057;-46
2022/01/29 07:53:21;;;;;;;12.68;7.20;;;;;;;;;;5028826;28;20276;-47
2022/01/29 07:55:47;;;;;;;13.02;7.55;;;;;;;;;;5026741;28;20053;-46
2022/01/29 07:58:13;;;;;;;13.65;7.55;;;;;;;;;;5027157;28;20017;-46
2022/01/29 08:00:39;;;;;;;15.35;8.07;;;;;;;;;;5030591;28;20434;-47
2022/01/29 08:03:05;;;;;;;14.38;7.80;;;;;;;;;;5037203;28;20104;-46
2022/01/29 08:05:33;;;;;;;12.40;7.13;;;;;;;;;;5028761;28;20033;-47
2022/01/29 08:07:59;;;;;;;14.45;7.53;;;;;;;;;;5028244;28;20049;-46
2022/01/29 08:10:25;;;;;;;13.02;7.55;;;;;;;;;;5027340;28;20047;-47
2022/01/29 08:12:52;;;;;;;14.65;7.07;;;;;;;;;;5028081;28;20504;-46
2022/01/29 08:15:18;;;;;;;14.35;7.93;;;;;;;;;;5039825;28;20029;-47
2022/01/29 08:17:44;;;;;;;12.25;7.10;;;;;;;;;;5044689;28;20397;-46
2022/01/29 08:20:10;;;;;;;13.48;6.57;;;;;;;;;;5047971;28;20575;-47
2022/01/29 08:22:36;;;;;;;11.98;6.85;;;;;;;;;;5033020;28;20100;-45
2022/01/29 08:25:04;;;;;;;11.15;6.20;;;;;;;;;;5028682;28;20025;-46
2022/01/29 08:27:31;;;;;;;13.55;6.78;;;;;;;;;;5032358;28;20029;-47
2022/01/29 08:29:57;;;;;;;13.18;6.68;;;;;;;;;;5038124;28;20028;-47
2022/01/29 08:32:23;;;;;;;10.93;6.32;;;;;;;;;;5040494;28;20029;-47
2022/01/29 08:34:50;;;;;;;12.50;6.65;;;;;;;;;;5039163;28;20021;-46
2022/01/29 08:37:16;;;;;;;12.20;6.40;;;;;;;;;;5029952;28;20092;-47
2022/01/29 08:39:43;;;;;;;11.85;6.60;;;;;;;;;;5037457;28;20104;-47
2022/01/29 08:42:09;;;;;;;18.27;8.93;;;;;;;;;;5048640;28;20033;-46
2022/01/29 08:44:36;;;;;;;15.77;8.43;;;;;;;;;;5047813;28;20036;-46
2022/01/29 08:47:02;;;;;;;17.35;8.27;;;;;;;;;;5047780;28;20404;-48
2022/01/29 08:49:28;;;;;;;15.27;8.07;;;;;;;;;;5041707;28;20025;-47
2022/01/29 08:51:54;;;;;;;17.15;8.57;;;;;;;;;;5047469;28;20737;-45
2022/01/29 08:54:20;;;;;;;14.50;7.95;;;;;;;;;;5036918;28;20029;-46
2022/01/29 08:56:46;;;;;;;16.38;8.32;;;;;;;;;;5029963;28;20124;-49
2022/01/29 08:59:12;;;;;;;14.00;7.57;;;;;;;;;;5058196;28;20522;-45
2022/01/29 09:01:38;;;;;;;14.05;7.47;;;;;;;;;;5039372;28;20061;-46
2022/01/29 09:04:05;;;;;;;14.60;8.32;;;;;;;;;;5027451;28;20082;-46
2022/01/29 09:06:31;;;;;;;14.43;7.40;;;;;;;;;;5027675;28;20037;-46
2022/01/29 09:08:57;;;;;;;14.60;7.78;;;;;;;;;;5027186;28;20029;-46
2022/01/29 09:11:23;;;;;;;15.27;8.00;;;;;;;;;;5030253;28;20373;-49
2022/01/29 09:13:49;;;;;;;15.23;7.90;;;;;;;;;;5034108;28;20478;-46
2022/01/29 09:16:15;;;;;;;12.85;7.72;;;;;;;;;;5031928;28;20117;-46
2022/01/29 09:18:43;;;;;;;13.57;7.15;;;;;;;;;;5029227;28;20501;-47
2022/01/29 09:21:09;;;;;;;13.10;7.32;;;;;;;;;;5036594;28;20104;-47
2022/01/29 09:23:35;;;;;;;11.63;6.30;;;;;;;;;;5027797;28;20225;-46
2022/01/29 09:26:04;;;;;;;12.93;6.68;;;;;;;;;;5034541;28;20664;-45
2022/01/29 09:28:30;;;;;;;14.50;7.45;;;;;;;;;;5039277;28;20037;-47
2022/01/29 09:30:56;;;;;;;15.13;8.00;;;;;;;;;;5039009;28;20107;-48
2022/01/29 09:33:22;;;;;;;16.08;8.88;;;;;;;;;;5041695;28;20037;-49
2022/01/29 09:35:48;;;;;;;15.55;8.30;;;;;;;;;;5027388;28;20076;-48
2022/01/29 09:38:14;;;;;;;18.25;8.18;;;;;;;;;;5035552;28;20459;-49
2022/01/29 09:40:43;;;;;;;19.10;8.82;;;;;;;;;;5031649;28;20088;-45
2022/01/29 09:43:11;;;;;;;14.63;7.63;;;;;;;;;;5042096;28;20032;-45
2022/01/29 09:45:38;;;;;;;12.65;7.53;;;;;;;;;;5060565;28;20033;-46
2022/01/29 09:48:05;;;;;;;13.60;7.85;;;;;;;;;;5064829;28;20384;-46
2022/01/29 09:50:32;;;;;;;15.18;8.10;;;;;;;;;;5039044;28;20029;-47
2022/01/29 09:52:59;;;;;;;15.27;9.35;;;;;;;;;;5027552;28;20030;-46
2022/01/29 09:55:26;;;;;;;17.17;8.95;;;;;;;;;;5038473;28;20090;-46
2022/01/29 09:57:53;;;;;;;15.07;8.38;;;;;;;;;;5046708;28;20071;-46
2022/01/29 10:00:19;;;;;;;12.73;7.20;;;;;;;;;;5047188;28;20021;-47
2022/01/29 10:03:05;;;;;;;13.27;7.18;;;;;;;;;;5046956;28;20028;-48
2022/01/29 10:05:35;;;;;;;12.32;7.05;;;;;;;;;;5028786;28;20129;-47
2022/01/29 10:08:01;;;;;;;13.52;6.53;;;;;;;;;;5042058;28;20051;-46
2022/01/29 10:10:27;;;;;;;14.25;6.53;;;;;;;;;;5046824;28;20025;-46
2022/01/29 10:12:54;;;;;;;13.65;7.53;;;;;;;;;;5046767;28;20033;-46
2022/01/29 10:15:22;;;;;;;12.73;6.07;;;;;;;;;;5047242;28;20028;-47
2022/01/29 10:17:55;;;;;;;13.35;6.72;;;;;;;;;;5046742;28;20532;-48
2022/01/29 10:20:26;;;;;;;14.35;7.35;;;;;;;;;;5047062;28;20040;-47
2022/01/29 10:22:56;;;;;;;13.18;6.35;;;;;;;;;;5041140;28;20120;-46
2022/01/29 10:25:23;;;;;;;12.23;6.25;;;;;;;;;;5043348;28;20946;-47
2022/01/29 10:28:12;;;;;;;12.15;6.20;;;;;;;;;;5046471;28;20060;-47
2022/01/29 10:30:54;;;;;;;14.07;6.60;;;;;;;;;;5046424;28;20112;-46
2022/01/29 10:33:23;;;;;;;14.82;6.95;;;;;;;;;;5048766;28;20518;-47
2022/01/29 10:35:53;;;;;;;15.25;7.28;;;;;;;;;;5049481;28;20033;-47
2022/01/29 10:38:24;;;;;;;14.27;7.25;;;;;;;;;;5049654;28;20043;-49
2022/01/29 10:41:10;;;;;;;13.80;7.60;;;;;;;;;;5049197;28;20556;-47
2022/01/29 10:43:36;;;;;;;12.18;6.75;;;;;;;;;;5049988;28;20051;-46
2022/01/29 10:46:02;;;;;;;11.60;6.05;;;;;;;;;;5049011;28;20033;-47
2022/01/29 10:48:44;;;;;;;14.20;7.45;;;;;;;;;;5049469;28;20063;-49
2022/01/29 10:51:12;;;;;;;15.80;7.45;;;;;;;;;;5049720;28;20344;-46
2022/01/29 10:53:38;;;;;;;14.80;7.38;;;;;;;;;;5049781;28;20029;-49
2022/01/29 10:56:04;;;;;;;14.98;7.35;;;;;;;;;;5049337;28;20025;-47
2022/01/29 10:58:39;;;;;;;13.80;7.00;;;;;;;;;;5049266;28;20029;-46
2022/01/29 11:01:15;;;;;;;13.32;6.72;;;;;;;;;;5049993;28;20658;-46
2022/01/29 11:03:41;;;;;;;11.23;6.13;;;;;;;;;;5045659;28;20165;-49
2022/01/29 11:06:13;;;;;;;11.23;6.07;;;;;;;;;;5030024;28;20076;-45
2022/01/29 11:08:40;;;;;;;10.23;6.00;;;;;;;;;;5029416;28;20578;-46
2022/01/29 11:11:06;;;;;;;9.68;5.38;;;;;;;;;;5028203;28;20603;-45
2022/01/29 11:13:33;;;;;;;10.20;5.72;;;;;;;;;;5029475;28;20523;-45
2022/01/29 11:15:59;;;;;;;9.60;5.78;;;;;;;;;;5029220;28;20021;-45
2022/01/29 11:18:26;;;;;;;9.75;5.18;;;;;;;;;;5031865;28;20025;-45
2022/01/29 11:20:52;;;;;;;9.77;5.57;;;;;;;;;;5038025;28;20099;-45
2022/01/29 11:23:20;;;;;;;11.15;6.40;;;;;;;;;;5031573;28;20116;-46
2022/01/29 11:25:46;;;;;;;11.18;5.93;;;;;;;;;;5035169;28;20052;-46
2022/01/29 11:28:16;;;;;;;8.98;5.30;;;;;;;;;;5030071;28;20123;-49
2022/01/29 11:30:43;;;;;;;9.60;5.38;;;;;;;;;;5031819;28;20041;-45
2022/01/29 11:33:09;;;;;;;10.68;5.68;;;;;;;;;;5052771;28;20059;-46
2022/01/29 11:35:56;;;;;;;9.73;5.35;;;;;;;;;;5040836;28;20032;-47
2022/01/29 11:38:34;;;;;;;9.25;5.78;;;;;;;;;;5046488;28;20033;-48
2022/01/29 11:41:01;;;;;;;8.57;5.00;;;;;;;;;;5047447;28;20558;-46
2022/01/29 11:43:28;;;;;;;8.75;5.20;;;;;;;;;;5035915;28;20032;-46
2022/01/29 11:46:03;;;;;;;9.63;5.60;;;;;;;;;;5030820;28;20071;-45
2022/01/29 11:48:31;;;;;;;9.38;5.65;;;;;;;;;;5027978;28;20444;-48
2022/01/29 11:50:58;;;;;;;9.68;5.60;;;;;;;;;;5035439;28;20039;-45
2022/01/29 11:53:26;;;;;;;8.70;5.40;;;;;;;;;;5046954;28;20040;-45
2022/01/29 11:55:53;;;;;;;10.57;5.50;;;;;;;;;;5046749;28;20029;-48
2022/01/29 11:58:20;;;;;;;10.98;5.50;;;;;;;;;;5048703;28;20021;-46
2022/01/29 12:03:50;;;;;;;8.88;5.13;;;;;;;;;;5048514;28;20078;-48
2022/01/29 12:06:26;;;;;;;9.48;5.38;;;;;;;;;;5044468;28;20043;-46
2022/01/29 12:11:28;;;;;;;10.00;5.90;;;;;;;;;;5040966;28;20033;-46
2022/01/29 12:14:12;;;;;;;11.27;5.60;;;;;;;;;;5055098;28;20037;-49
2022/01/29 12:16:54;;;;;;;14.73;6.90;;;;;;;;;;5047534;28;20098;-47
2022/01/29 12:19:39;;;;;;;12.73;6.72;;;;;;;;;;5036998;28;20135;-47
2022/01/29 12:22:13;;;;;;;12.68;6.57;;;;;;;;;;5031370;28;20020;-49
2022/01/29 12:24:40;;;;;;;14.52;7.60;;;;;;;;;;5055107;28;20100;-47
2022/01/29 12:27:06;;;;;;;11.48;6.15;;;;;;;;;;5039392;28;20027;-47
2022/01/29 12:29:32;;;;;;;12.02;6.97;;;;;;;;;;5031114;28;20028;-46
2022/01/29 12:31:59;;;;;;;12.70;6.57;;;;;;;;;;5036544;28;20013;-49
2022/01/29 12:34:27;;;;;;;13.07;6.70;;;;;;;;;;5029071;28;20094;-46
2022/01/29 12:36:53;;;;;;;12.50;6.63;;;;;;;;;;5045484;28;20032;-48
2022/01/29 12:39:23;;;;;;;12.77;7.03;;;;;;;;;;5037865;28;20523;-50
2022/01/29 12:42:03;;;;;;;12.32;6.60;;;;;;;;;;5035849;28;20032;-48
2022/01/29 12:44:29;;;;;;;11.73;6.18;;;;;;;;;;5033199;28;20033;-46
2022/01/29 12:46:55;;;;;;;11.85;6.03;;;;;;;;;;5040015;28;20091;-48
2022/01/29 12:49:22;;;;;;;11.13;6.05;;;;;;;;;;5034887;28;20033;-46
2022/01/29 12:51:48;;;;;;;12.38;6.43;;;;;;;;;;5028745;28;20021;-46
2022/01/29 12:54:15;;;;;;;12.27;6.63;;;;;;;;;;5030658;28;20045;-46
2022/01/29 12:56:41;;;;;;;14.95;6.28;;;;;;;;;;5037982;28;20032;-47
2022/01/29 12:59:09;;;;;;;13.00;6.32;;;;;;;;;;5040810;28;20062;-49
2022/01/29 13:01:36;;;;;;;15.00;7.72;;;;;;;;;;5038569;28;20018;-50
2022/01/29 13:04:02;;;;;;;14.23;7.70;;;;;;;;;;5036966;28;20407;-48
2022/01/29 13:06:28;;;;;;;15.50;7.93;;;;;;;;;;5030712;28;20021;-47
2022/01/29 13:09:10;;;;;;;14.40;7.47;;;;;;;;;;5036934;28;20036;-49
2022/01/29 13:11:36;;;;;;;14.15;7.57;;;;;;;;;;5035269;28;20112;-49
2022/01/29 13:14:10;;;;;;;12.95;6.72;;;;;;;;;;5038891;28;20025;-48
2022/01/29 13:16:36;;;;;;;13.52;7.32;;;;;;;;;;5040034;28;20029;-47
2022/01/29 13:19:03;;;;;;;12.10;7.20;;;;;;;;;;5042479;28;20040;-48
2022/01/29 13:21:30;;;;;;;12.90;7.22;;;;;;;;;;5041781;28;20021;-49
2022/01/29 13:23:57;;;;;;;14.95;7.82;;;;;;;;;;5034910;28;20032;-47
2022/01/29 13:26:30;;;;;;;11.88;6.75;;;;;;;;;;5036680;28;20025;-49
2022/01/29 13:29:04;;;;;;;13.80;7.77;;;;;;;;;;5033427;28;20094;-49
2022/01/29 13:31:30;;;;;;;15.00;7.03;;;;;;;;;;5035161;28;20029;-50
2022/01/29 13:34:04;;;;;;;13.38;7.13;;;;;;;;;;5036476;28;20125;-48
2022/01/29 13:36:31;;;;;;;16.77;7.53;;;;;;;;;;5040719;28;21065;-46
2022/01/29 13:39:07;;;;;;;12.43;6.63;;;;;;;;;;5035933;28;20021;-50
2022/01/29 13:41:34;;;;;;;14.40;7.50;;;;;;;;;;5039699;28;20071;-46
2022/01/29 13:44:12;;;;;;;15.88;8.02;;;;;;;;;;5046915;28;20036;-50
2022/01/29 13:46:39;;;;;;;13.77;7.28;;;;;;;;;;5030620;28;20404;-49
2022/01/29 13:49:07;;;;;;;13.50;7.03;;;;;;;;;;5035762;28;20116;-49
2022/01/29 13:51:34;;;;;;;14.30;7.22;;;;;;;;;;5039414;28;20817;-46
2022/01/29 13:54:01;;;;;;;13.38;6.68;;;;;;;;;;5041518;28;20033;-48
2022/01/29 13:56:28;;;;;;;13.57;7.25;;;;;;;;;;5034778;28;20688;-47
2022/01/29 13:58:58;;;;;;;13.07;7.22;;;;;;;;;;5031293;28;20051;-49
2022/01/29 14:01:38;;;;;;;15.80;7.60;;;;;;;;;;5040481;28;20424;-47
2022/01/29 14:04:08;;;;;;;13.25;7.03;;;;;;;;;;5020881;28;20114;-47
2022/01/29 14:06:53;;;;;;;14.23;7.70;;;;;;;;;;5035726;28;20051;-48
2022/01/29 14:11:57;;;;;;;15.80;7.75;;;;;;;;;;5030430;28;20033;-47
2022/01/29 14:14:30;;;;;;;15.50;7.85;;;;;;;;;;5029850;28;20091;-46
2022/01/29 14:16:57;;;;;;;13.60;7.32;;;;;;;;;;5034422;28;20400;-47
2022/01/29 14:19:23;;;;;;;15.80;8.10;;;;;;;;;;5030288;28;20052;-46
2022/01/29 14:21:51;;;;;;;15.27;7.88;;;;;;;;;;5032301;28;20444;-47
2022/01/29 14:24:18;;;;;;;14.80;7.68;;;;;;;;;;5034270;28;20036;-46
2022/01/29 14:26:44;;;;;;;15.35;7.22;;;;;;;;;;5037377;28;20470;-47
2022/01/29 14:29:10;;;;;;;14.43;7.53;;;;;;;;;;5024482;28;20087;-46
2022/01/29 14:31:36;;;;;;;14.52;7.00;;;;;;;;;;5027933;28;20025;-46
2022/01/29 14:34:05;;;;;;;12.05;6.57;;;;;;;;;;5028641;28;20092;-49
2022/01/29 14:36:31;;;;;;;13.05;7.13;;;;;;;;;;5035367;28;20013;-48
2022/01/29 14:38:57;;;;;;;16.13;7.72;;;;;;;;;;5033426;28;20025;-49
2022/01/29 14:41:24;;;;;;;14.85;7.47;;;;;;;;;;5027519;28;20477;-49
2022/01/29 14:43:50;;;;;;;17.27;8.50;;;;;;;;;;5029947;28;20060;-48
2022/01/29 14:46:16;;;;;;;16.70;8.73;;;;;;;;;;5030192;28;20029;-50
2022/01/29 14:48:42;;;;;;;15.20;8.75;;;;;;;;;;5034194;28;20033;-49
2022/01/29 14:51:09;;;;;;;17.02;8.57;;;;;;;;;;5031333;28;20039;-48
2022/01/29 14:53:36;;;;;;;17.80;9.18;;;;;;;;;;5033947;28;20041;-46
2022/01/29 14:56:02;;;;;;;14.48;8.15;;;;;;;;;;5039515;28;20396;-47
2022/01/29 14:58:28;;;;;;;16.95;8.82;;;;;;;;;;5026440;28;20036;-50